Time;durP1;ratioP1;P1;durP2;ratioP2;P2;SDS_P1;SDS_P2;PMS_P1;PMS_P2;Temp;Humidity;BMP_temperature;BMP_pressure;BME280_temperature;BME280_humidity;BME280_pressure;Samples;Min_cycle;Max_cycle;Signal;HPM_P1;HPM_P2
2022/10/01 00:02:05;;;;;;;15.52;12.15;;;;;;;16.05;85.45;99771.53;4438536;32;33327;-79
2022/10/01 00:04:36;;;;;;;19.45;13.32;;;;;;;15.85;86.35;99805.06;4439532;32;34654;-79
2022/10/01 00:07:08;;;;;;;21.55;14.57;;;;;;;14.00;100.00;99898.06;4424687;32;34079;-77
2022/10/01 00:09:36;;;;;;;19.98;13.43;;;;;;;13.74;100.00;99892.91;4426881;32;33886;-78
2022/10/01 00:12:03;;;;;;;19.33;14.02;;;;;;;14.64;98.38;99801.06;4438421;32;33787;-78
2022/10/01 00:14:31;;;;;;;18.17;12.95;;;;;;;14.74;97.49;99769.19;4435184;32;34697;-78
2022/10/01 00:16:59;;;;;;;18.08;13.73;;;;;;;15.06;94.19;99765.66;4435064;32;34624;-79
2022/10/01 00:19:26;;;;;;;19.83;14.55;;;;;;;15.51;91.55;99763.34;4436134;32;33738;-79
2022/10/01 00:21:54;;;;;;;19.40;14.07;;;;;;;15.58;91.13;99785.22;4436580;32;34009;-78
2022/10/01 00:24:21;;;;;;;17.00;12.98;;;;;;;15.57;91.01;99790.41;4434785;32;34155;-78
2022/10/01 00:26:49;;;;;;;20.25;13.65;;;;;;;15.80;89.89;99786.69;4416949;32;34730;-79
2022/10/01 00:29:16;;;;;;;20.55;12.57;;;;;;;15.90;89.05;99788.66;4436375;32;33819;-78
2022/10/01 00:31:44;;;;;;;22.58;13.20;;;;;;;15.94;89.00;99788.72;4421716;32;33512;-79
2022/10/01 00:34:14;;;;;;;18.48;13.32;;;;;;;16.08;88.09;99782.06;4422522;32;34481;-79
2022/10/01 00:36:41;;;;;;;29.17;14.35;;;;;;;15.33;91.60;99788.97;4423963;32;33740;-79
2022/10/01 00:39:10;;;;;;;20.17;14.10;;;;;;;15.20;93.25;99786.88;4433385;32;34385;-79
2022/10/01 00:41:38;;;;;;;19.00;13.57;;;;;;;15.18;93.32;99775.53;4430093;32;34318;-80
2022/10/01 00:44:27;;;;;;;19.35;13.85;;;;;;;15.20;93.37;99786.88;4424213;32;33944;-79
2022/10/01 00:47:09;;;;;;;19.58;14.95;;;;;;;14.85;96.54;99789.44;4417699;32;33963;-79
2022/10/01 00:49:38;;;;;;;17.65;13.38;;;;;;;14.97;95.62;99781.97;4424293;32;34023;-80
2022/10/01 00:52:09;;;;;;;19.75;13.30;;;;;;;15.83;89.73;99773.69;4434758;32;34279;-80
2022/10/01 00:54:41;;;;;;;16.58;12.40;;;;;;;15.99;88.94;99782.72;4422044;32;34675;-80
2022/10/01 00:57:09;;;;;;;17.35;12.50;;;;;;;16.41;86.35;99770.56;4420460;32;34631;-80
2022/10/01 00:59:37;;;;;;;16.85;12.43;;;;;;;16.41;86.33;99775.81;4417238;32;33901;-81
2022/10/01 01:02:04;;;;;;;16.73;11.88;;;;;;;16.62;85.18;99759.69;4421817;32;32720;-80
2022/10/01 01:04:32;;;;;;;17.48;12.25;;;;;;;16.60;85.04;99761.38;4427795;32;34192;-80
2022/10/01 01:07:01;;;;;;;20.73;12.13;;;;;;;16.25;86.93;99772.00;4425200;32;34582;-81
2022/10/01 01:09:38;;;;;;;18.48;13.52;;;;;;;16.09;87.34;99766.44;4420726;32;34695;-80
2022/10/01 01:12:11;;;;;;;16.62;11.73;;;;;;;16.22;86.62;99772.78;4428329;32;33557;-79
2022/10/01 01:14:44;;;;;;;17.90;12.98;;;;;;;16.27;86.01;99776.41;4433949;32;33935;-80
2022/10/01 01:17:21;;;;;;;17.48;12.30;;;;;;;16.26;86.39;99779.87;4431849;32;34620;-80
2022/10/01 01:20:28;;;;;;;17.02;12.23;;;;;;;16.71;83.79;99779.03;4412954;32;34312;-80
2022/10/01 01:23:19;;;;;;;15.00;11.40;;;;;;;17.27;79.93;99782.72;4421729;32;33381;-80
2022/10/01 01:26:03;;;;;;;17.65;11.98;;;;;;;17.42;78.75;99776.84;4423799;32;33477;-80
2022/10/01 01:28:38;;;;;;;15.63;11.15;;;;;;;17.71;77.07;99769.44;4439339;32;33695;-80
2022/10/01 01:31:08;;;;;;;18.70;12.55;;;;;;;16.73;81.22;99775.56;4425990;32;34002;-80
2022/10/01 01:33:38;;;;;;;17.95;12.60;;;;;;;15.96;85.91;99785.31;4423601;32;33370;-80
2022/10/01 01:36:15;;;;;;;16.55;12.20;;;;;;;15.81;87.42;99777.09;4408923;32;34004;-80
2022/10/01 01:38:48;;;;;;;16.77;12.00;;;;;;;16.13;85.75;99772.63;4425514;32;34834;-80
2022/10/01 01:41:16;;;;;;;16.90;12.18;;;;;;;16.44;84.00;99775.88;4438138;32;34484;-80
2022/10/01 01:43:47;;;;;;;16.70;11.60;;;;;;;16.49;83.90;99784.69;4435887;32;33388;-80
2022/10/01 01:46:17;;;;;;;17.37;11.80;;;;;;;16.39;84.20;99777.50;4404367;32;33095;-80
2022/10/01 01:48:49;;;;;;;18.45;11.73;;;;;;;16.35;84.45;99770.47;4425202;32;33341;-80
2022/10/01 01:51:40;;;;;;;18.25;12.23;;;;;;;16.14;85.70;99771.75;4423655;32;34070;-80
2022/10/01 01:54:08;;;;;;;18.15;11.50;;;;;;;16.43;84.47;99763.66;4424749;32;31894;-80
2022/10/01 01:56:35;;;;;;;18.20;11.95;;;;;;;16.31;84.98;99754.69;4424508;32;33747;-80
2022/10/01 01:59:03;;;;;;;18.27;11.77;;;;;;;16.66;83.31;99751.91;4424570;32;33738;-80
2022/10/01 02:01:40;;;;;;;14.30;11.57;;;;;;;16.64;83.38;99748.38;4437848;32;35441;-81
2022/10/01 02:04:27;;;;;;;16.27;12.25;;;;;;;16.51;84.08;99746.38;4429633;32;33734;-80
2022/10/01 02:07:06;;;;;;;18.80;11.57;;;;;;;16.70;82.91;99742.37;4433862;32;34462;-80
2022/10/01 02:09:43;;;;;;;16.02;11.73;;;;;;;16.80;82.80;99732.97;4436964;32;34225;-79
2022/10/01 02:12:21;;;;;;;15.98;11.48;;;;;;;16.57;83.37;99725.56;4437380;32;33903;-80
2022/10/01 02:14:53;;;;;;;20.65;11.93;;;;;;;16.69;83.13;99731.06;4422772;32;33018;-79
2022/10/01 02:17:33;;;;;;;15.05;11.48;;;;;;;16.60;82.99;99730.88;4424004;32;32880;-80
2022/10/01 02:20:17;;;;;;;14.30;12.00;;;;;;;16.47;83.20;99741.94;4424626;32;34036;-80
2022/10/01 02:22:47;;;;;;;17.30;11.63;;;;;;;16.47;83.55;99757.63;4411933;32;34572;-80
2022/10/01 02:25:16;;;;;;;14.87;11.57;;;;;;;16.43;82.61;99759.28;4438386;32;33629;-80
2022/10/01 02:27:52;;;;;;;16.65;11.20;;;;;;;16.76;81.08;99767.78;4423590;32;33689;-80
2022/10/01 02:30:20;;;;;;;14.90;11.18;;;;;;;16.98;80.17;99759.53;4421971;32;34108;-81
2022/10/01 02:32:49;;;;;;;15.68;11.80;;;;;;;17.38;77.88;99748.84;4434880;32;33725;-80
2022/10/01 02:35:18;;;;;;;16.77;12.10;;;;;;;16.67;80.82;99753.69;4437366;32;33520;-80
2022/10/01 02:37:48;;;;;;;16.15;11.12;;;;;;;17.11;79.00;99752.75;4424455;32;34710;-80
2022/10/01 02:40:19;;;;;;;18.20;11.77;;;;;;;17.00;79.55;99757.81;4422121;32;36698;-79
2022/10/01 02:42:49;;;;;;;17.98;12.18;;;;;;;17.10;78.89;99762.34;4435604;32;34599;-80
2022/10/01 02:45:22;;;;;;;15.65;11.95;;;;;;;15.95;85.13;99761.75;4430483;32;33241;-80
2022/10/01 02:47:56;;;;;;;17.73;12.40;;;;;;;16.10;84.81;99759.47;4422560;32;34017;-80
2022/10/01 02:50:26;;;;;;;17.52;13.35;;;;;;;16.21;84.19;99760.59;4423715;32;34563;-80
2022/10/01 02:53:05;;;;;;;20.20;12.88;;;;;;;16.05;85.46;99769.84;4423411;32;33898;-78
2022/10/01 02:55:35;;;;;;;18.33;12.60;;;;;;;15.81;86.99;99770.16;4423584;32;33614;-79
2022/10/01 02:58:04;;;;;;;18.98;13.15;;;;;;;15.95;86.31;99769.59;4430591;32;36073;-80
2022/10/01 03:00:31;;;;;;;19.35;13.05;;;;;;;15.71;87.71;99775.97;4437216;32;33687;-80
2022/10/01 03:02:59;;;;;;;19.65;13.98;;;;;;;15.47;90.11;99776.25;4435983;32;33665;-79
2022/10/01 03:05:27;;;;;;;21.42;14.07;;;;;;;15.16;92.07;99772.00;4435849;32;33442;-79
2022/10/01 03:07:54;;;;;;;19.80;13.60;;;;;;;15.10;93.16;99776.22;4436344;32;33498;-79
2022/10/01 03:10:22;;;;;;;19.15;13.38;;;;;;;15.53;90.08;99755.53;4436593;32;33685;-79
2022/10/01 03:12:49;;;;;;;17.10;13.05;;;;;;;15.98;87.72;99743.53;4435498;32;34024;-79
2022/10/01 03:15:18;;;;;;;19.25;13.27;;;;;;;16.16;86.39;99749.16;4437880;32;33346;-79
2022/10/01 03:17:52;;;;;;;18.87;13.93;;;;;;;15.70;88.56;99749.00;4422394;32;33867;-80
2022/10/01 03:20:21;;;;;;;20.05;14.40;;;;;;;15.86;88.07;99765.91;4409320;32;33283;-79
2022/10/01 03:22:48;;;;;;;20.00;14.05;;;;;;;15.98;87.46;99751.38;4421935;32;33312;-79
2022/10/01 03:25:16;;;;;;;23.30;14.63;;;;;;;15.69;89.53;99751.56;4424053;32;33469;-80
2022/10/01 03:27:45;;;;;;;20.55;14.85;;;;;;;16.35;86.38;99773.94;4435508;32;33812;-79
2022/10/01 03:30:12;;;;;;;20.65;14.73;;;;;;;15.67;89.53;99787.19;4435576;32;33730;-79
2022/10/01 03:32:40;;;;;;;22.92;14.38;;;;;;;15.28;91.96;99821.91;4437620;32;33723;-80
2022/10/01 03:35:08;;;;;;;20.58;13.77;;;;;;;15.84;90.14;99816.34;4433288;32;34228;-80
2022/10/01 03:37:36;;;;;;;20.17;13.93;;;;;;;16.03;88.01;99804.59;4425004;32;33680;-80
2022/10/01 03:40:03;;;;;;;19.15;13.82;;;;;;;16.09;87.81;99805.63;4438434;32;34732;-79
2022/10/01 03:42:31;;;;;;;19.50;14.43;;;;;;;16.61;85.17;99805.88;4438266;32;34047;-79
2022/10/01 03:44:59;;;;;;;20.85;14.00;;;;;;;16.34;86.18;99798.34;4437876;32;33804;-79
2022/10/01 03:47:27;;;;;;;19.12;14.18;;;;;;;15.98;87.98;99790.56;4438263;32;34743;-79
2022/10/01 03:49:54;;;;;;;20.27;14.20;;;;;;;15.91;89.07;99794.75;4436723;32;33857;-80
2022/10/01 03:52:22;;;;;;;17.90;13.52;;;;;;;16.16;87.33;99785.72;4433718;32;33677;-79
2022/10/01 03:54:49;;;;;;;18.70;13.98;;;;;;;16.14;87.11;99787.44;4422114;32;34052;-79
2022/10/01 03:57:17;;;;;;;18.92;13.62;;;;;;;16.18;87.50;99786.66;4436717;32;33481;-79
2022/10/01 03:59:44;;;;;;;20.05;14.00;;;;;;;15.95;88.35;99780.03;4421192;32;33856;-79
2022/10/01 04:02:12;;;;;;;19.00;14.13;;;;;;;15.88;88.92;99763.34;4436444;32;34058;-79
2022/10/01 04:04:40;;;;;;;19.65;14.48;;;;;;;16.01;88.19;99751.44;4436789;32;33583;-79
2022/10/01 04:07:07;;;;;;;20.67;14.20;;;;;;;15.97;88.81;99750.47;4436654;32;33735;-79
2022/10/01 04:09:36;;;;;;;22.02;14.10;;;;;;;16.02;88.15;99750.59;4436783;32;34551;-79
2022/10/01 04:12:04;;;;;;;20.58;14.57;;;;;;;16.05;87.67;99751.53;4437004;32;33564;-79
2022/10/01 04:14:32;;;;;;;18.27;12.75;;;;;;;16.08;87.56;99755.94;4437350;32;33504;-79
2022/10/01 04:16:59;;;;;;;17.60;12.82;;;;;;;16.38;85.95;99746.97;4437319;32;34514;-79
2022/10/01 04:19:27;;;;;;;20.25;13.82;;;;;;;15.90;87.81;99752.06;4436290;32;33878;-79
2022/10/01 04:21:54;;;;;;;18.48;13.13;;;;;;;16.10;87.38;99749.03;4438458;32;33473;-79
2022/10/01 04:24:22;;;;;;;20.25;13.80;;;;;;;16.09;87.29;99744.66;4436342;32;33296;-79
2022/10/01 04:26:50;;;;;;;18.00;12.73;;;;;;;15.94;87.77;99747.81;4423633;32;32482;-79
2022/10/01 04:29:18;;;;;;;17.37;12.43;;;;;;;16.34;86.00;99750.37;4439409;32;34922;-79
2022/10/01 04:31:45;;;;;;;17.02;12.90;;;;;;;16.40;85.48;99747.88;4421925;32;33855;-79
2022/10/01 04:34:13;;;;;;;17.67;11.90;;;;;;;16.47;85.27;99757.63;4422724;32;33484;-79
2022/10/01 04:36:40;;;;;;;16.37;11.63;;;;;;;16.50;84.62;99761.19;4436214;32;34513;-79
2022/10/01 04:39:07;;;;;;;15.35;11.23;;;;;;;16.54;84.94;99751.69;4436964;32;34038;-79
2022/10/01 04:41:35;;;;;;;15.30;10.85;;;;;;;16.51;85.29;99751.59;4436600;32;34480;-79
2022/10/01 04:44:04;;;;;;;16.77;10.85;;;;;;;16.44;85.51;99749.75;4422914;32;34152;-80
2022/10/01 04:46:31;;;;;;;15.07;11.45;;;;;;;16.31;86.19;99749.47;4437872;32;34523;-79
2022/10/01 04:48:59;;;;;;;17.42;10.90;;;;;;;16.37;86.20;99758.31;4438097;32;33961;-79
2022/10/01 04:51:27;;;;;;;15.68;11.12;;;;;;;16.62;84.77;99765.78;4437571;32;34006;-79
2022/10/01 04:53:54;;;;;;;17.73;11.05;;;;;;;16.50;85.15;99755.09;4431339;32;33378;-79
2022/10/01 04:56:22;;;;;;;15.43;11.30;;;;;;;16.58;84.96;99752.62;4437806;32;34670;-79
2022/10/01 04:58:49;;;;;;;15.35;11.02;;;;;;;16.61;84.65;99758.81;4436852;32;34396;-79
2022/10/01 05:01:17;;;;;;;15.30;10.63;;;;;;;16.01;87.87;99762.78;4429208;32;34029;-79
2022/10/01 05:03:46;;;;;;;14.48;10.52;;;;;;;16.33;86.54;99764.31;4437837;32;33258;-79
2022/10/01 05:06:13;;;;;;;15.93;11.07;;;;;;;16.57;84.91;99775.25;4436436;32;33891;-80
2022/10/01 05:08:41;;;;;;;16.05;11.18;;;;;;;15.78;89.17;99785.75;4437448;32;33916;-80
2022/10/01 05:11:09;;;;;;;16.17;11.35;;;;;;;15.84;89.59;99793.75;4438479;32;34061;-79
2022/10/01 05:13:36;;;;;;;15.38;10.75;;;;;;;15.32;92.41;99815.94;4437964;32;33929;-80
2022/10/01 05:16:04;;;;;;;18.00;12.07;;;;;;;16.12;89.26;99815.25;4438826;32;33812;-79
2022/10/01 05:18:31;;;;;;;15.93;12.00;;;;;;;16.06;88.54;99809.91;4438411;32;34600;-79
2022/10/01 05:21:04;;;;;;;15.20;10.45;;;;;;;16.45;86.30;99809.00;4438163;32;34187;-79
2022/10/01 05:23:32;;;;;;;14.93;10.25;;;;;;;16.50;86.46;99817.84;4437784;32;33576;-79
2022/10/01 05:25:59;;;;;;;14.93;9.93;;;;;;;16.95;83.65;99816.16;4438605;32;33932;-78
2022/10/01 05:28:27;;;;;;;15.20;10.80;;;;;;;16.58;85.28;99808.41;4437025;32;33915;-78
2022/10/01 05:30:59;;;;;;;16.70;11.10;;;;;;;16.34;86.60;99794.81;4437158;32;34224;-77
2022/10/01 05:33:27;;;;;;;15.25;11.25;;;;;;;15.99;88.80;99792.31;4424026;32;34168;-78
2022/10/01 05:35:58;;;;;;;19.33;12.65;;;;;;;15.96;89.00;99787.03;4431150;32;33651;-77
2022/10/01 05:38:26;;;;;;;24.08;10.77;;;;;;;15.90;89.81;99777.31;4424473;32;34640;-77
2022/10/01 05:40:53;;;;;;;16.45;11.40;;;;;;;16.31;87.31;99786.06;4428810;32;33735;-77
2022/10/01 05:43:21;;;;;;;15.90;11.52;;;;;;;16.16;88.22;99785.72;4437783;32;33266;-77
2022/10/01 05:45:49;;;;;;;19.08;12.57;;;;;;;16.14;88.52;99800.50;4436694;32;33881;-77
2022/10/01 05:48:17;;;;;;;17.00;12.00;;;;;;;16.08;88.82;99805.59;4436428;32;34797;-77
2022/10/01 05:50:45;;;;;;;15.88;11.50;;;;;;;16.11;89.36;99803.94;4435857;32;33679;-77
2022/10/01 05:53:14;;;;;;;17.67;12.20;;;;;;;15.77;91.54;99802.28;4437603;32;34412;-77
2022/10/01 05:55:41;;;;;;;17.42;11.25;;;;;;;16.30;88.69;99794.78;4435349;32;33659;-77
2022/10/01 05:58:11;;;;;;;20.52;11.98;;;;;;;16.24;88.42;99799.84;4437065;32;34152;-77
2022/10/01 06:00:40;;;;;;;17.48;12.05;;;;;;;16.09;89.49;99773.41;4437485;32;34412;-77
2022/10/01 06:03:11;;;;;;;16.37;12.30;;;;;;;16.07;89.81;99764.63;4437890;32;33342;-77
2022/10/01 06:05:39;;;;;;;18.12;12.32;;;;;;;16.48;87.99;99757.66;4437359;32;34630;-77
2022/10/01 06:08:08;;;;;;;16.52;11.85;;;;;;;16.26;88.62;99761.59;4436680;32;33543;-77
2022/10/01 06:10:36;;;;;;;16.98;11.90;;;;;;;16.38;88.73;99760.03;4429342;32;34327;-77
2022/10/01 06:13:04;;;;;;;16.50;11.38;;;;;;;16.56;87.10;99747.34;4435935;32;34521;-77
2022/10/01 06:15:37;;;;;;;17.75;11.82;;;;;;;16.26;88.73;99735.44;4436129;32;34184;-77
2022/10/01 06:18:09;;;;;;;17.23;12.50;;;;;;;16.46;88.32;99734.97;4434586;32;33658;-77
2022/10/01 06:20:37;;;;;;;17.40;12.07;;;;;;;16.51;88.03;99733.31;4429527;32;34461;-77
2022/10/01 06:23:10;;;;;;;15.60;10.90;;;;;;;16.64;87.38;99730.06;4421505;32;33398;-76
2022/10/01 06:25:39;;;;;;;19.65;11.82;;;;;;;16.65;87.30;99731.84;4436961;32;33370;-77
2022/10/01 06:28:08;;;;;;;18.00;11.50;;;;;;;16.42;88.66;99747.09;4437347;32;34502;-77
2022/10/01 06:30:37;;;;;;;17.35;11.50;;;;;;;16.51;88.58;99765.59;4412841;32;33705;-77
2022/10/01 06:33:07;;;;;;;17.58;11.63;;;;;;;16.70;88.01;99779.87;4422680;32;32521;-77
2022/10/01 06:35:40;;;;;;;18.10;12.30;;;;;;;16.78;87.87;99781.78;4436603;32;33969;-77
2022/10/01 06:38:08;;;;;;;15.73;11.70;;;;;;;17.05;85.70;99777.06;4436883;32;33725;-78
2022/10/01 06:40:36;;;;;;;18.33;12.02;;;;;;;16.99;86.46;99773.47;4437684;32;33861;-77
2022/10/01 06:43:06;;;;;;;17.33;11.93;;;;;;;16.81;87.27;99777.47;4420846;32;34104;-77
2022/10/01 06:45:37;;;;;;;17.15;12.50;;;;;;;16.74;87.58;99775.59;4428635;32;33823;-77
2022/10/01 06:48:06;;;;;;;16.70;11.45;;;;;;;16.67;88.62;99776.34;4433075;32;33739;-77
2022/10/01 06:50:34;;;;;;;20.10;13.05;;;;;;;16.92;87.39;99779.44;4436642;32;33570;-77
2022/10/01 06:53:01;;;;;;;18.85;12.98;;;;;;;17.04;86.58;99784.94;4435309;32;33334;-77
2022/10/01 06:55:31;;;;;;;19.10;12.43;;;;;;;16.86;87.33;99791.59;4429074;32;34077;-77
2022/10/01 06:58:01;;;;;;;19.42;12.77;;;;;;;17.16;85.61;99789.50;4431246;32;34689;-78
2022/10/01 07:00:31;;;;;;;17.98;12.55;;;;;;;17.31;85.14;99784.53;4430494;32;34289;-77
2022/10/01 07:03:00;;;;;;;18.77;12.60;;;;;;;17.25;84.94;99779.19;4429446;32;34496;-77
2022/10/01 07:05:28;;;;;;;18.23;12.82;;;;;;;16.98;86.49;99775.22;4425189;32;34101;-78
2022/10/01 07:07:55;;;;;;;21.90;13.45;;;;;;;16.92;87.29;99767.28;4435476;32;35059;-78
2022/10/01 07:10:23;;;;;;;17.30;13.77;;;;;;;16.96;87.17;99768.19;4434578;32;33703;-78
2022/10/01 07:12:50;;;;;;;16.70;11.85;;;;;;;16.87;87.91;99761.06;4431446;32;33225;-77
2022/10/01 07:15:20;;;;;;;17.02;11.60;;;;;;;17.32;85.21;99760.09;4435264;32;33900;-78
2022/10/01 07:17:48;;;;;;;16.95;12.00;;;;;;;17.10;86.32;99754.50;4417894;32;33698;-78
2022/10/01 07:20:17;;;;;;;16.45;11.88;;;;;;;17.01;87.24;99754.31;4431362;32;33995;-78
2022/10/01 07:22:46;;;;;;;16.45;12.20;;;;;;;17.66;84.27;99763.28;4411461;32;31737;-78
2022/10/01 07:25:14;;;;;;;16.35;11.90;;;;;;;17.28;85.48;99756.53;4434337;32;34428;-78
2022/10/01 07:27:41;;;;;;;17.27;12.18;;;;;;;17.51;84.60;99760.41;4434685;32;32766;-78
2022/10/01 07:30:09;;;;;;;18.35;12.32;;;;;;;17.68;83.69;99756.31;4437188;32;34566;-78
2022/10/01 07:32:36;;;;;;;17.35;11.93;;;;;;;17.48;84.75;99753.38;4436652;32;33205;-78
2022/10/01 07:35:04;;;;;;;17.00;12.70;;;;;;;17.68;84.80;99743.22;4438527;32;34798;-78
2022/10/01 07:37:32;;;;;;;19.05;11.98;;;;;;;17.50;85.29;99738.59;4436542;32;33765;-78
2022/10/01 07:40:00;;;;;;;18.00;13.18;;;;;;;17.41;86.47;99733.19;4436823;32;34044;-78
2022/10/01 07:42:34;;;;;;;17.92;12.82;;;;;;;17.38;86.66;99727.91;4436470;32;33961;-79
2022/10/01 07:45:05;;;;;;;16.92;12.00;;;;;;;17.71;85.05;99743.25;4437067;32;33931;-79
2022/10/01 07:47:32;;;;;;;16.75;12.45;;;;;;;17.88;84.43;99738.28;4435880;32;34857;-79
2022/10/01 07:50:00;;;;;;;17.67;13.05;;;;;;;17.78;84.63;99745.09;4436705;32;34030;-79
2022/10/01 07:52:28;;;;;;;19.45;12.98;;;;;;;17.91;84.40;99745.34;4435176;32;33859;-78
2022/10/01 07:54:55;;;;;;;18.45;14.07;;;;;;;18.10;83.00;99742.09;4437224;32;33656;-76
2022/10/01 07:57:23;;;;;;;17.50;13.40;;;;;;;18.28;81.72;99750.19;4434912;32;34432;-78
2022/10/01 07:59:50;;;;;;;19.17;12.55;;;;;;;18.25;82.40;99742.31;4438647;32;34462;-78
2022/10/01 08:02:22;;;;;;;18.45;13.27;;;;;;;17.70;84.76;99744.13;4424028;32;32996;-79
2022/10/01 08:07:36;;;;;;;18.45;14.18;;;;;;;18.08;83.03;99746.44;4440582;32;33800;-79
2022/10/01 08:10:04;;;;;;;19.67;14.25;;;;;;;17.92;84.47;99744.47;4437399;32;33964;-80
2022/10/01 08:12:31;;;;;;;18.67;13.65;;;;;;;18.16;83.27;99746.56;4433053;32;33259;-78
2022/10/01 08:15:01;;;;;;;17.65;13.10;;;;;;;18.10;83.41;99736.88;4438591;32;33999;-81
2022/10/01 08:17:29;;;;;;;19.42;14.25;;;;;;;18.48;81.96;99744.31;4436797;32;33732;-80
2022/10/01 08:19:56;;;;;;;23.70;15.50;;;;;;;18.19;83.13;99736.97;4438297;32;34104;-81
2022/10/01 08:22:24;;;;;;;23.60;15.80;;;;;;;18.25;83.18;99746.66;4435726;32;33353;-79
2022/10/01 08:24:52;;;;;;;21.27;15.93;;;;;;;18.38;82.24;99745.94;4434640;32;32507;-79
2022/10/01 08:27:19;;;;;;;19.65;14.27;;;;;;;18.14;83.70;99749.16;4437391;32;33319;-78
2022/10/01 08:29:47;;;;;;;23.23;17.00;;;;;;;18.34;82.73;99740.66;4434677;32;33831;-77
2022/10/01 08:32:14;;;;;;;25.20;16.80;;;;;;;18.27;83.00;99724.84;4434435;32;33232;-78
2022/10/01 08:34:42;;;;;;;22.30;16.00;;;;;;;18.53;81.57;99716.41;4432830;32;33741;-78
2022/10/01 08:37:09;;;;;;;27.25;17.60;;;;;;;17.83;84.83;99706.78;4437832;32;33638;-78
2022/10/01 08:39:37;;;;;;;23.05;15.68;;;;;;;17.86;85.39;99706.81;4435367;32;34108;-77
2022/10/01 08:42:43;;;;;;;23.55;16.50;;;;;;;18.38;82.83;99710.97;4419876;32;33856;-78
2022/10/01 08:45:35;;;;;;;24.77;16.12;;;;;;;18.32;83.21;99700.44;4420593;32;32012;-78
2022/10/01 08:48:38;;;;;;;28.95;17.27;;;;;;;18.61;82.41;99704.25;4416344;32;33970;-78
2022/10/01 08:51:09;;;;;;;25.70;17.17;;;;;;;18.70;82.09;99703.47;4405537;32;33672;-78
2022/10/01 08:53:47;;;;;;;24.48;17.70;;;;;;;18.32;83.98;99703.06;4426164;32;33465;-79
2022/10/01 08:56:27;;;;;;;22.77;17.05;;;;;;;18.59;83.02;99705.09;4414905;32;33998;-79
2022/10/01 08:58:57;;;;;;;25.62;16.60;;;;;;;18.54;82.92;99715.53;4413339;32;33972;-79
2022/10/01 09:01:26;;;;;;;25.75;17.17;;;;;;;18.89;81.52;99712.44;4434202;32;33915;-79
2022/10/01 09:03:53;;;;;;;27.83;18.02;;;;;;;18.77;81.84;99699.16;4430192;32;33285;-78
2022/10/01 09:06:24;;;;;;;27.35;18.60;;;;;;;18.63;82.84;99707.75;4430365;32;33839;-79
2022/10/01 09:09:01;;;;;;;27.27;18.45;;;;;;;18.78;82.34;99700.94;4402262;32;32182;-79
2022/10/01 09:11:40;;;;;;;31.80;18.10;;;;;;;19.01;81.24;99698.56;4418316;32;33680;-79
2022/10/01 09:14:27;;;;;;;27.05;18.35;;;;;;;19.08;80.88;99697.72;4411829;32;32463;-79
2022/10/01 09:16:57;;;;;;;24.45;17.50;;;;;;;19.14;80.69;99694.28;4426341;32;33889;-79
2022/10/01 09:19:44;;;;;;;25.60;18.30;;;;;;;19.14;80.80;99696.91;4433045;32;34220;-79
2022/10/01 09:22:32;;;;;;;24.50;17.48;;;;;;;19.42;80.53;99698.00;4419167;32;32336;-81
2022/10/01 09:25:23;;;;;;;26.85;18.05;;;;;;;19.35;81.37;99689.19;4418271;32;32670;-79
2022/10/01 09:27:59;;;;;;;25.62;18.37;;;;;;;19.26;82.20;99683.88;4435518;32;32337;-80
2022/10/01 09:30:28;;;;;;;25.80;17.60;;;;;;;19.66;81.55;99684.12;4420101;32;33799;-79
2022/10/01 09:33:01;;;;;;;26.40;17.75;;;;;;;19.79;81.33;99686.00;4419584;32;34916;-79
2022/10/01 09:35:43;;;;;;;25.52;17.58;;;;;;;19.93;81.08;99685.19;4436059;32;33428;-79
2022/10/01 09:38:30;;;;;;;26.02;16.50;;;;;;;20.05;80.39;99677.38;4436652;32;33701;-79
2022/10/01 09:40:58;;;;;;;24.67;17.55;;;;;;;19.96;80.35;99677.34;4417935;32;34151;-78
2022/10/01 09:43:28;;;;;;;25.33;17.75;;;;;;;20.31;78.20;99680.09;4421149;32;33652;-78
2022/10/01 09:45:56;;;;;;;26.42;17.42;;;;;;;20.14;78.43;99687.91;4418835;32;33437;-78
2022/10/01 09:48:33;;;;;;;23.20;17.00;;;;;;;20.34;77.53;99679.22;4432357;32;35097;-78
2022/10/01 09:51:09;;;;;;;23.20;17.25;;;;;;;20.30;77.98;99682.72;4427622;32;34028;-78
2022/10/01 09:53:41;;;;;;;28.73;19.00;;;;;;;20.42;77.81;99677.50;4437983;32;34698;-78
2022/10/01 09:56:18;;;;;;;24.27;17.77;;;;;;;19.64;82.32;99675.38;4435053;32;34198;-78
2022/10/01 09:58:49;;;;;;;28.08;18.67;;;;;;;19.05;82.96;99672.34;4414918;32;34130;-78
2022/10/01 10:01:22;;;;;;;23.17;17.27;;;;;;;20.25;77.75;99652.91;4435236;32;34673;-79
2022/10/01 10:03:55;;;;;;;23.52;16.52;;;;;;;20.19;78.09;99659.91;4435904;32;34486;-79
2022/10/01 10:06:26;;;;;;;21.35;15.77;;;;;;;19.97;78.60;99664.19;4407879;32;34286;-78
2022/10/01 10:08:55;;;;;;;23.38;16.27;;;;;;;19.82;77.93;99651.84;4434100;32;34522;-77
2022/10/01 10:11:26;;;;;;;24.42;16.67;;;;;;;20.28;75.91;99653.81;4408799;32;33966;-79
2022/10/01 10:13:59;;;;;;;22.95;17.73;;;;;;;19.83;78.10;99656.22;4421755;32;33833;-79
2022/10/01 10:16:28;;;;;;;25.20;17.75;;;;;;;19.69;77.19;99647.38;4436058;32;33403;-79
2022/10/01 10:19:08;;;;;;;24.85;18.75;;;;;;;19.64;78.51;99643.84;4415893;32;33931;-78
2022/10/01 10:21:36;;;;;;;23.98;17.35;;;;;;;19.93;78.39;99651.88;4407213;32;34135;-78
2022/10/01 10:24:17;;;;;;;25.52;18.23;;;;;;;19.79;77.74;99643.06;4426330;32;20147;-78
2022/10/01 10:26:55;;;;;;;23.87;16.45;;;;;;;19.73;80.66;99643.91;4407368;32;34358;-79
2022/10/01 10:29:31;;;;;;;23.23;16.37;;;;;;;19.49;81.21;99639.41;4436212;32;34040;-79
2022/10/01 10:32:05;;;;;;;18.75;12.82;;;;;;;19.96;80.45;99635.28;4436509;32;34618;-79
2022/10/01 10:34:37;;;;;;;12.52;10.10;;;;;;;19.87;80.30;99641.34;4424572;32;34216;-78
2022/10/01 10:37:11;;;;;;;13.50;9.63;;;;;;;19.15;84.58;99633.03;4420169;32;33966;-78
2022/10/01 10:39:40;;;;;;;12.27;9.77;;;;;;;19.10;84.78;99632.09;4420413;32;34460;-77
2022/10/01 10:42:07;;;;;;;11.15;9.07;;;;;;;19.15;86.54;99627.78;4419383;32;33725;-78
2022/10/01 10:44:38;;;;;;;13.60;9.20;;;;;;;19.07;84.38;99625.09;4422331;32;33068;-78
2022/10/01 10:47:10;;;;;;;9.88;7.40;;;;;;;19.42;86.75;99622.69;4434597;32;33393;-77
2022/10/01 10:49:49;;;;;;;9.88;7.40;;;;;;;19.73;82.29;99622.03;4422547;32;33258;-76
2022/10/01 10:52:22;;;;;;;11.10;6.82;;;;;;;19.54;83.20;99618.38;4430838;32;33619;-77
2022/10/01 10:54:53;;;;;;;8.65;6.37;;;;;;;19.93;82.94;99611.59;4434768;32;34038;-76
2022/10/01 10:57:29;;;;;;;10.02;7.35;;;;;;;19.39;82.29;99606.03;4412093;32;32205;-78
2022/10/01 11:00:10;;;;;;;11.32;7.43;;;;;;;20.20;81.81;99605.53;4435397;32;33783;-77
2022/10/01 11:02:40;;;;;;;9.40;7.10;;;;;;;20.13;80.47;99602.03;4435755;32;33886;-77
2022/10/01 11:05:17;;;;;;;10.63;7.12;;;;;;;20.29;80.63;99596.81;4434092;32;33765;-77
2022/10/01 11:07:47;;;;;;;9.20;5.95;;;;;;;20.06;80.18;99600.25;4436371;32;34055;-76
2022/10/01 11:10:29;;;;;;;9.00;5.87;;;;;;;19.35;81.78;99592.00;4432877;32;33688;-77
2022/10/01 11:13:19;;;;;;;7.60;6.10;;;;;;;19.72;81.17;99589.63;4431527;32;34140;-78
2022/10/01 11:16:16;;;;;;;8.90;5.70;;;;;;;19.17;80.37;99573.53;4418031;32;33385;-78
2022/10/01 11:19:19;;;;;;;6.97;5.15;;;;;;;19.52;81.87;99571.09;4421617;32;33655;-77
2022/10/01 11:22:18;;;;;;;10.43;5.47;;;;;;;19.77;80.76;99566.84;4429158;32;34770;-78
2022/10/01 11:25:13;;;;;;;6.75;4.68;;;;;;;20.27;79.52;99556.47;4424055;32;34506;-77
2022/10/01 11:27:41;;;;;;;5.65;4.32;;;;;;;20.06;79.45;99542.41;4420997;32;33487;-77
2022/10/01 11:30:23;;;;;;;8.75;4.85;;;;;;;19.79;81.03;99554.59;4436605;32;33351;-78
2022/10/01 11:33:02;;;;;;;7.57;3.75;;;;;;;19.65;81.05;99540.50;4420674;32;33873;-79
2022/10/01 11:35:43;;;;;;;8.85;4.18;;;;;;;19.98;80.33;99537.13;4432228;32;34667;-78
2022/10/01 11:38:29;;;;;;;6.20;3.80;;;;;;;20.00;78.64;99524.84;4414649;32;34454;-79
2022/10/01 11:41:12;;;;;;;7.85;4.00;;;;;;;20.35;80.04;99523.16;4436739;32;33562;-78
2022/10/01 11:43:43;;;;;;;8.85;4.18;;;;;;;20.12;76.33;99521.37;4423186;32;34277;-76